createdAt,value
2022-09-22T00:01:26.114Z,2.90
2022-09-22T00:03:56.110Z,2.97
2022-09-22T00:06:25.774Z,2.10
2022-09-22T00:08:57.369Z,2.17
2022-09-22T00:11:28.406Z,5.57
2022-09-22T00:13:59.007Z,2.27
2022-09-22T00:16:30.331Z,2.30
2022-09-22T00:18:58.766Z,2.53
2022-09-22T00:21:27.948Z,2.00
2022-09-22T00:23:57.521Z,2.40
2022-09-22T00:26:25.710Z,2.07
2022-09-22T00:28:53.419Z,1.83
2022-09-22T00:31:22.957Z,2.07
2022-09-22T00:33:51.248Z,3.33
2022-09-22T00:36:20.234Z,2.47
2022-09-22T00:38:50.463Z,3.33
2022-09-22T00:41:23.262Z,3.10
2022-09-22T00:43:52.479Z,2.00
2022-09-22T00:46:26.506Z,3.23
2022-09-22T00:48:58.867Z,2.43
2022-09-22T00:51:33.874Z,2.67
2022-09-22T00:54:05.551Z,2.53
2022-09-22T00:56:40.475Z,2.27
2022-09-22T00:59:12.910Z,1.30
2022-09-22T01:01:40.919Z,1.30
2022-09-22T01:04:08.995Z,0.97
2022-09-22T01:06:39.506Z,2.60
2022-09-22T01:09:08.958Z,1.40
2022-09-22T01:11:40.723Z,1.60
2022-09-22T01:14:19.427Z,1.33
2022-09-22T01:16:55.195Z,2.00
2022-09-22T01:19:47.100Z,2.17
2022-09-22T01:22:33.426Z,1.40
2022-09-22T01:25:17.410Z,2.30
2022-09-22T01:28:20.821Z,1.40
2022-09-22T01:30:58.625Z,1.40
2022-09-22T01:33:36.045Z,3.87
2022-09-22T01:36:21.768Z,1.70
2022-09-22T01:39:02.837Z,1.80
2022-09-22T01:41:47.171Z,1.37
2022-09-22T01:44:21.618Z,2.37
2022-09-22T01:46:55.750Z,2.20
2022-09-22T01:49:29.301Z,1.00
2022-09-22T01:52:01.355Z,1.53
2022-09-22T01:54:34.096Z,2.00
2022-09-22T01:57:15.139Z,1.97
2022-09-22T01:59:47.862Z,2.00
2022-09-22T02:02:23.862Z,1.87
2022-09-22T02:04:55.593Z,1.43
2022-09-22T02:07:29.038Z,1.50
2022-09-22T02:09:58.335Z,1.50
2022-09-22T02:12:26.537Z,1.40
2022-09-22T02:14:54.327Z,2.07
2022-09-22T02:17:23.957Z,1.93
2022-09-22T02:19:52.254Z,2.27
2022-09-22T02:22:20.272Z,1.10
2022-09-22T02:24:48.582Z,1.10
2022-09-22T02:27:25.601Z,2.03
2022-09-22T02:29:58.091Z,0.97
2022-09-22T02:32:28.682Z,1.30
2022-09-22T02:34:57.005Z,1.60
2022-09-22T02:37:33.874Z,2.67
2022-09-22T02:40:08.854Z,1.87
2022-09-22T02:42:43.225Z,1.80
2022-09-22T02:45:17.301Z,2.27
2022-09-22T02:47:51.856Z,2.63
2022-09-22T02:50:22.306Z,2.10
2022-09-22T02:52:52.781Z,2.53
2022-09-22T02:55:20.696Z,2.57
2022-09-22T02:57:48.738Z,3.07
2022-09-22T03:00:16.897Z,3.10
2022-09-22T03:02:46.281Z,1.83
2022-09-22T03:05:14.005Z,3.13
2022-09-22T03:07:42.431Z,4.17
2022-09-22T03:10:11.123Z,3.47
2022-09-22T03:13:02.352Z,3.37
2022-09-22T03:15:30.820Z,1.93
2022-09-22T03:18:00.272Z,3.17
2022-09-22T03:20:27.975Z,3.33
2022-09-22T03:22:56.503Z,3.00
2022-09-22T03:25:24.793Z,2.90
2022-09-22T03:27:52.475Z,3.87
2022-09-22T03:30:20.335Z,2.27
2022-09-22T03:32:48.441Z,3.23
2022-09-22T03:35:17.682Z,3.00
2022-09-22T03:37:46.791Z,3.10
2022-09-22T03:40:14.863Z,4.83
2022-09-22T03:42:42.938Z,2.63
2022-09-22T03:45:12.687Z,2.77
2022-09-22T03:47:40.764Z,2.30
2022-09-22T03:50:09.926Z,2.70
2022-09-22T03:52:40.414Z,2.20
2022-09-22T03:55:09.451Z,2.97
2022-09-22T03:57:37.378Z,2.77
2022-09-22T04:00:06.910Z,3.40
2022-09-22T04:02:40.454Z,2.60
2022-09-22T04:05:09.502Z,2.23
2022-09-22T04:07:39.048Z,3.00
2022-09-22T04:10:07.806Z,4.03
2022-09-22T04:12:37.243Z,3.43
2022-09-22T04:15:06.454Z,2.77
2022-09-22T04:17:34.159Z,3.60
2022-09-22T04:20:03.051Z,3.30
2022-09-22T04:22:30.855Z,4.30
2022-09-22T04:25:00.741Z,3.13
2022-09-22T04:27:28.428Z,2.23
2022-09-22T04:29:57.136Z,3.93
2022-09-22T04:32:24.858Z,2.43
2022-09-22T04:34:52.591Z,2.93
2022-09-22T04:37:20.270Z,3.03
2022-09-22T04:39:47.975Z,3.40
2022-09-22T04:42:17.107Z,3.80
2022-09-22T04:44:46.198Z,4.93
2022-09-22T04:47:13.935Z,2.97
2022-09-22T04:49:42.376Z,1.70
2022-09-22T04:52:10.641Z,2.07
2022-09-22T04:54:38.710Z,2.40
2022-09-22T04:57:06.784Z,2.10
2022-09-22T04:59:36.597Z,3.23
2022-09-22T05:02:04.444Z,3.97
2022-09-22T05:04:32.984Z,2.67
2022-09-22T05:07:00.656Z,4.40
2022-09-22T05:09:28.850Z,4.17
2022-09-22T05:12:00.930Z,5.63
2022-09-22T05:14:29.610Z,3.93
2022-09-22T05:16:58.735Z,5.03
2022-09-22T05:19:26.717Z,5.87
2022-09-22T05:21:54.405Z,3.83
2022-09-22T05:24:22.444Z,2.83
2022-09-22T05:26:50.357Z,3.60
2022-09-22T05:29:18.725Z,2.23
2022-09-22T05:31:46.596Z,3.23
2022-09-22T05:34:16.199Z,3.30
2022-09-22T05:36:43.883Z,3.30
2022-09-22T05:39:12.295Z,3.43
2022-09-22T05:41:39.988Z,3.03
2022-09-22T05:44:07.781Z,9.63
2022-09-22T05:46:35.473Z,2.93
2022-09-22T05:49:03.654Z,3.80
2022-09-22T05:51:32.951Z,6.30
2022-09-22T05:54:00.653Z,3.30
2022-09-22T05:56:28.653Z,4.13
2022-09-22T05:58:56.298Z,5.17
2022-09-22T06:01:24.414Z,2.97
2022-09-22T06:03:52.114Z,2.60
2022-09-22T06:06:20.265Z,3.10
2022-09-22T06:08:49.394Z,1.63
2022-09-22T06:11:17.712Z,1.03
2022-09-22T06:13:46.068Z,1.80
2022-09-22T06:16:14.230Z,2.10
2022-09-22T06:18:41.963Z,0.90
2022-09-22T06:21:10.921Z,2.60
2022-09-22T06:23:42.687Z,2.87
2022-09-22T06:26:12.394Z,2.97
2022-09-22T06:28:40.050Z,2.60
2022-09-22T06:31:08.297Z,2.67
2022-09-22T06:33:36.047Z,3.57
2022-09-22T06:36:04.495Z,2.60
2022-09-22T06:38:32.909Z,4.60
2022-09-22T06:41:04.271Z,4.70
2022-09-22T06:43:37.741Z,4.63
2022-09-22T06:46:06.303Z,7.03
2022-09-22T06:48:34.466Z,4.30
2022-09-22T06:51:02.290Z,4.70
2022-09-22T06:53:30.891Z,8.37
2022-09-22T06:56:03.526Z,6.43
2022-09-22T06:58:42.386Z,5.10
2022-09-22T07:01:21.356Z,5.93
2022-09-22T07:03:49.333Z,4.40
2022-09-22T07:06:20.401Z,5.07
2022-09-22T07:08:49.826Z,4.57
2022-09-22T07:11:23.639Z,6.27
2022-09-22T07:13:53.412Z,6.17
2022-09-22T07:16:24.843Z,5.13
2022-09-22T07:18:54.510Z,5.23
2022-09-22T07:21:24.684Z,4.97
2022-09-22T07:23:55.538Z,5.60
2022-09-22T07:26:26.426Z,4.77
2022-09-22T07:28:55.379Z,4.83
2022-09-22T07:31:28.585Z,6.13
2022-09-22T07:34:00.622Z,5.10
2022-09-22T07:36:30.506Z,9.20
2022-09-22T07:38:59.719Z,5.20
2022-09-22T07:41:30.063Z,6.90
2022-09-22T07:44:19.209Z,6.77
2022-09-22T07:46:48.424Z,7.07
2022-09-22T07:49:17.647Z,5.90
2022-09-22T07:51:45.336Z,7.47
2022-09-22T07:54:13.329Z,10.33
2022-09-22T07:56:43.229Z,8.23
2022-09-22T07:59:13.530Z,5.27
2022-09-22T08:01:44.419Z,4.83
2022-09-22T08:04:16.546Z,5.87
2022-09-22T08:06:44.727Z,6.90
2022-09-22T08:09:14.511Z,5.60
2022-09-22T08:11:44.357Z,5.57
2022-09-22T08:14:13.069Z,4.43
2022-09-22T08:16:41.660Z,3.67
2022-09-22T08:19:12.434Z,3.40
2022-09-22T08:21:48.869Z,4.43
2022-09-22T08:24:21.311Z,4.50
2022-09-22T08:26:51.178Z,4.10
2022-09-22T08:29:19.206Z,3.97
2022-09-22T08:31:47.506Z,3.70
2022-09-22T08:34:17.535Z,3.53
2022-09-22T08:36:48.683Z,3.27
2022-09-22T08:39:17.909Z,2.40
2022-09-22T08:41:57.969Z,4.23
2022-09-22T08:44:30.195Z,2.80
2022-09-22T08:47:02.020Z,1.70
2022-09-22T08:49:54.590Z,3.00
2022-09-22T08:52:32.104Z,2.60
2022-09-22T08:55:02.586Z,1.30
2022-09-22T08:57:56.285Z,1.87
2022-09-22T09:00:25.809Z,1.07
2022-09-22T09:03:09.612Z,1.70
2022-09-22T09:06:02.496Z,0.77
2022-09-22T09:08:53.260Z,1.10
2022-09-22T09:11:32.466Z,0.67
2022-09-22T09:14:14.015Z,2.13
2022-09-22T09:16:49.942Z,1.67
2022-09-22T09:19:20.121Z,0.83
2022-09-22T09:21:52.867Z,1.03
2022-09-22T09:27:24.329Z,1.63
2022-09-22T09:30:01.233Z,0.60
2022-09-22T09:32:37.357Z,1.23
2022-09-22T09:35:07.404Z,1.40
2022-09-22T09:37:35.219Z,1.13
2022-09-22T09:40:08.682Z,1.20
2022-09-22T09:42:36.808Z,0.70
2022-09-22T09:45:06.549Z,0.87
2022-09-22T09:47:48.256Z,1.47
2022-09-22T09:50:16.987Z,1.37
2022-09-22T09:52:46.113Z,0.97
2022-09-22T09:55:26.730Z,1.53
2022-09-22T09:58:06.343Z,1.17
2022-09-22T10:00:34.910Z,1.67
2022-09-22T10:03:13.396Z,1.13
2022-09-22T10:05:41.443Z,1.77
2022-09-22T10:08:18.563Z,1.60
2022-09-22T10:10:49.289Z,0.80
2022-09-22T10:13:24.683Z,1.63
2022-09-22T10:16:24.850Z,0.73
2022-09-22T10:19:03.355Z,1.47
2022-09-22T10:21:31.204Z,0.90
2022-09-22T10:24:01.758Z,1.53
2022-09-22T10:26:32.431Z,2.40
2022-09-22T10:29:21.025Z,0.93
2022-09-22T10:32:03.569Z,0.87
2022-09-22T10:34:34.356Z,1.10
2022-09-22T10:37:04.757Z,1.03
2022-09-22T10:39:40.285Z,0.93
2022-09-22T10:42:21.107Z,0.80
2022-09-22T10:44:49.271Z,2.73
2022-09-22T10:47:31.090Z,0.90
2022-09-22T10:50:42.592Z,0.70
2022-09-22T10:53:26.414Z,1.87
2022-09-22T10:56:01.947Z,0.70
2022-09-22T10:58:56.246Z,1.00
2022-09-22T11:01:40.758Z,0.90
2022-09-22T11:04:22.135Z,1.30
2022-09-22T11:07:37.611Z,0.90
2022-09-22T11:10:32.414Z,0.73
2022-09-22T11:13:10.926Z,0.63
2022-09-22T11:16:04.800Z,1.07
2022-09-22T11:18:52.214Z,1.30
2022-09-22T11:21:33.117Z,0.77
2022-09-22T11:24:13.385Z,2.33
2022-09-22T11:26:48.435Z,0.60
2022-09-22T11:29:53.414Z,3.63
2022-09-22T11:32:38.441Z,2.90
2022-09-22T11:35:27.037Z,12.00
2022-09-22T11:38:13.468Z,0.50
2022-09-22T11:41:03.122Z,2.20
2022-09-22T11:43:59.083Z,1.63
2022-09-22T11:46:40.374Z,1.60
2022-09-22T11:49:24.919Z,0.83
2022-09-22T11:52:13.814Z,1.03
2022-09-22T11:55:04.779Z,0.37
2022-09-22T11:57:36.178Z,0.50
2022-09-22T12:00:13.140Z,0.70
2022-09-22T12:02:46.485Z,0.60
2022-09-22T12:05:20.541Z,1.73
2022-09-22T12:07:57.391Z,0.83
2022-09-22T12:10:33.829Z,0.53
2022-09-22T12:13:02.587Z,0.97
2022-09-22T12:15:38.736Z,0.53
2022-09-22T12:18:13.225Z,0.97
2022-09-22T12:20:57.683Z,0.60
2022-09-22T12:23:37.950Z,0.70
2022-09-22T12:26:09.402Z,0.40
2022-09-22T12:28:42.898Z,0.70
2022-09-22T12:31:14.185Z,0.47
2022-09-22T12:33:48.706Z,0.70
2022-09-22T12:36:20.070Z,2.00
2022-09-22T12:38:47.818Z,0.60
2022-09-22T12:41:20.249Z,1.50
2022-09-22T12:43:48.706Z,0.53
2022-09-22T12:46:27.863Z,1.20
2022-09-22T12:48:55.679Z,0.50
2022-09-22T12:51:34.014Z,0.50
2022-09-22T12:54:47.839Z,0.50
2022-09-22T12:57:29.303Z,0.47
2022-09-22T13:00:32.896Z,0.40
2022-09-22T13:03:22.253Z,1.33
2022-09-22T13:05:49.913Z,0.37
2022-09-22T13:08:23.832Z,0.70
2022-09-22T13:11:02.021Z,0.80
2022-09-22T13:13:39.735Z,0.53
2022-09-22T13:16:34.769Z,0.47
2022-09-22T13:19:03.459Z,0.60
2022-09-22T13:21:33.733Z,0.63
2022-09-22T13:24:05.048Z,2.07
2022-09-22T13:26:35.001Z,1.07
2022-09-22T13:29:06.914Z,0.80
2022-09-22T13:31:40.031Z,0.43
2022-09-22T13:34:31.088Z,0.53
2022-09-22T13:37:01.717Z,0.73
2022-09-22T13:39:34.378Z,0.60
2022-09-22T13:42:06.596Z,0.63
2022-09-22T13:44:37.972Z,0.80
2022-09-22T13:47:09.651Z,0.50
2022-09-22T13:49:42.199Z,1.13
2022-09-22T13:52:16.840Z,6.70
2022-09-22T13:54:49.053Z,0.63
2022-09-22T13:57:23.046Z,0.67
2022-09-22T13:59:52.526Z,0.57
2022-09-22T14:02:27.029Z,0.50
2022-09-22T14:05:01.535Z,0.47
2022-09-22T14:07:35.975Z,0.30
2022-09-22T14:10:09.649Z,0.50
2022-09-22T14:12:40.616Z,0.33
2022-09-22T14:15:33.629Z,0.33
2022-09-22T14:18:02.238Z,0.87
2022-09-22T14:20:30.001Z,0.70
2022-09-22T14:22:58.120Z,0.60
2022-09-22T14:25:27.261Z,0.57
2022-09-22T14:27:59.691Z,3.20
2022-09-22T14:30:31.045Z,0.47
2022-09-22T14:33:03.060Z,1.20
2022-09-22T14:35:33.367Z,0.43
2022-09-22T14:38:12.996Z,2.70
2022-09-22T14:40:53.993Z,1.97
2022-09-22T14:43:25.637Z,0.57
2022-09-22T14:45:58.101Z,1.13
2022-09-22T14:48:30.216Z,0.50
2022-09-22T14:51:02.827Z,0.50
2022-09-22T14:53:34.179Z,0.43
2022-09-22T14:56:07.264Z,1.00
2022-09-22T14:58:40.570Z,1.13
2022-09-22T15:01:39.584Z,0.47
2022-09-22T15:04:15.022Z,0.43
2022-09-22T15:06:43.242Z,0.40
2022-09-22T15:09:22.351Z,0.30
2022-09-22T15:11:53.249Z,0.53
2022-09-22T15:14:31.756Z,0.30
2022-09-22T15:17:19.615Z,1.10
2022-09-22T15:19:50.788Z,0.73
2022-09-22T15:22:18.702Z,0.37
2022-09-22T15:24:47.274Z,2.50
2022-09-22T15:27:17.777Z,0.57
2022-09-22T15:29:45.987Z,0.37
2022-09-22T15:32:14.130Z,0.40
2022-09-22T15:34:45.161Z,0.87
2022-09-22T15:37:17.159Z,0.30
2022-09-22T15:39:45.156Z,2.40
2022-09-22T15:42:12.997Z,1.23
2022-09-22T15:44:43.043Z,0.60
2022-09-22T15:47:16.592Z,6.60
2022-09-22T15:49:45.323Z,0.53
2022-09-22T15:52:12.977Z,0.27
2022-09-22T15:54:40.650Z,0.50
2022-09-22T15:57:08.347Z,1.93
2022-09-22T15:59:39.903Z,0.47
2022-09-22T16:02:12.570Z,0.60
2022-09-22T16:04:40.591Z,0.50
2022-09-22T16:07:13.761Z,0.57
2022-09-22T16:09:42.114Z,0.33
2022-09-22T16:12:13.701Z,0.63
2022-09-22T16:14:42.789Z,2.50
2022-09-22T16:17:11.794Z,2.23
2022-09-22T16:19:39.905Z,1.07
2022-09-22T16:22:07.751Z,0.80
2022-09-22T16:24:36.047Z,5.20
2022-09-22T16:27:07.278Z,7.77
2022-09-22T16:29:37.707Z,2.80
2022-09-22T16:32:05.554Z,0.90
2022-09-22T16:34:36.291Z,0.60
2022-09-22T16:37:04.184Z,3.60
2022-09-22T16:39:31.850Z,0.80
2022-09-22T16:41:59.527Z,1.17
2022-09-22T16:44:27.679Z,3.07
2022-09-22T16:46:55.427Z,3.17
2022-09-22T16:49:23.247Z,0.77
2022-09-22T16:51:55.007Z,1.30
2022-09-22T16:54:24.683Z,1.07
2022-09-22T16:56:53.786Z,0.77
2022-09-22T16:59:23.471Z,1.43
2022-09-22T17:01:51.634Z,0.40
2022-09-22T17:04:20.127Z,0.50
2022-09-22T17:06:48.551Z,0.73
2022-09-22T17:09:18.901Z,1.40
2022-09-22T17:11:49.073Z,4.73
2022-09-22T17:14:21.396Z,1.53
2022-09-22T17:16:51.863Z,1.47
2022-09-22T17:19:22.331Z,1.43
2022-09-22T17:21:53.941Z,1.33
2022-09-22T17:24:24.567Z,1.17
2022-09-22T17:26:53.937Z,0.83
2022-09-22T17:29:25.525Z,1.60
2022-09-22T17:31:56.430Z,2.07
2022-09-22T17:34:25.677Z,1.87
2022-09-22T17:36:55.347Z,1.43
2022-09-22T17:39:26.099Z,2.37
2022-09-22T17:41:53.978Z,1.73
2022-09-22T17:44:23.045Z,2.13
2022-09-22T17:47:10.017Z,1.57
2022-09-22T17:49:56.488Z,1.83
2022-09-22T17:52:41.944Z,5.63
2022-09-22T17:55:20.282Z,1.93
2022-09-22T17:57:48.110Z,3.07
2022-09-22T18:00:19.464Z,6.50
2022-09-22T18:02:47.437Z,1.43
2022-09-22T18:05:17.677Z,2.53
2022-09-22T18:07:45.339Z,2.90
2022-09-22T18:10:16.593Z,3.60
2022-09-22T18:12:44.550Z,4.77
2022-09-22T18:15:13.916Z,3.67
2022-09-22T18:17:42.966Z,3.33
2022-09-22T18:20:15.396Z,2.57
2022-09-22T18:22:48.231Z,1.97
2022-09-22T18:25:19.902Z,1.77
2022-09-22T18:27:48.205Z,5.97
2022-09-22T18:30:17.065Z,1.27
2022-09-22T18:32:44.730Z,1.13
2022-09-22T18:35:12.894Z,1.30
2022-09-22T18:37:40.961Z,1.47
2022-09-22T18:40:12.789Z,2.13
2022-09-22T18:42:44.698Z,2.80
2022-09-22T18:45:14.223Z,3.30
2022-09-22T18:47:43.435Z,3.27
2022-09-22T18:50:12.398Z,4.93
2022-09-22T18:52:42.891Z,2.77
2022-09-22T18:55:12.294Z,1.77
2022-09-22T18:57:40.075Z,2.17
2022-09-22T19:00:13.825Z,2.63
2022-09-22T19:02:41.763Z,3.30
2022-09-22T19:05:10.292Z,2.70
2022-09-22T19:07:43.821Z,2.13
2022-09-22T19:10:14.423Z,2.17
2022-09-22T19:12:42.814Z,2.00
2022-09-22T19:15:15.221Z,2.10
2022-09-22T19:17:44.551Z,4.37
2022-09-22T19:20:14.776Z,2.70
2022-09-22T19:22:42.543Z,2.50
2022-09-22T19:25:11.279Z,2.00
2022-09-22T19:27:39.735Z,1.90
2022-09-22T19:30:08.683Z,3.13
2022-09-22T19:32:38.141Z,2.20
2022-09-22T19:35:07.042Z,2.77
2022-09-22T19:37:34.752Z,2.97
2022-09-22T19:40:02.942Z,2.30
2022-09-22T19:42:30.656Z,2.50
2022-09-22T19:44:59.448Z,2.87
2022-09-22T19:47:27.220Z,2.63
2022-09-22T19:49:56.372Z,3.00
2022-09-22T19:52:24.041Z,3.00
2022-09-22T19:54:52.135Z,3.10
2022-09-22T19:57:19.786Z,2.53
2022-09-22T19:59:47.450Z,3.77
2022-09-22T20:02:15.943Z,3.80
2022-09-22T20:04:44.668Z,4.17
2022-09-22T20:07:13.824Z,3.43
2022-09-22T20:09:41.580Z,2.80
2022-09-22T20:12:09.313Z,4.33
2022-09-22T20:14:37.619Z,4.83
2022-09-22T20:17:08.008Z,5.83
2022-09-22T20:19:38.301Z,4.47
2022-09-22T20:22:25.073Z,5.37
2022-09-22T20:24:55.948Z,6.03
2022-09-22T20:27:25.304Z,4.30
2022-09-22T20:29:57.034Z,4.50
2022-09-22T20:32:26.152Z,3.50
2022-09-22T20:34:55.376Z,2.90
2022-09-22T20:37:25.150Z,3.73
2022-09-22T20:39:53.199Z,3.20
2022-09-22T20:42:20.885Z,3.30
2022-09-22T20:44:49.467Z,2.83
2022-09-22T20:47:19.697Z,3.13
2022-09-22T20:49:51.523Z,4.30
2022-09-22T20:52:20.862Z,3.60
2022-09-22T20:54:50.343Z,3.10
2022-09-22T20:57:18.348Z,3.07
2022-09-22T20:59:47.132Z,3.30
2022-09-22T21:02:15.915Z,3.07
2022-09-22T21:04:43.808Z,5.83
2022-09-22T21:07:12.227Z,3.50
2022-09-22T21:09:56.936Z,2.87
2022-09-22T21:12:30.707Z,3.10
2022-09-22T21:14:58.940Z,3.43
2022-09-22T21:17:27.675Z,2.53
2022-09-22T21:19:57.640Z,3.07
2022-09-22T21:22:28.021Z,3.90
2022-09-22T21:24:56.172Z,2.47
2022-09-22T21:27:24.707Z,3.13
2022-09-22T21:29:54.118Z,2.40
2022-09-22T21:32:21.795Z,3.07
2022-09-22T21:34:49.833Z,3.13
2022-09-22T21:37:17.490Z,2.77
2022-09-22T21:39:45.383Z,2.40
2022-09-22T21:42:13.096Z,3.30
2022-09-22T21:44:40.756Z,2.60
2022-09-22T21:47:11.135Z,3.07
2022-09-22T21:49:39.111Z,3.77
2022-09-22T21:52:06.838Z,2.60
2022-09-22T21:54:34.842Z,2.90
2022-09-22T21:57:02.505Z,2.43
2022-09-22T21:59:31.302Z,2.10
2022-09-22T22:01:59.017Z,1.87
2022-09-22T22:04:28.418Z,2.13
2022-09-22T22:06:56.102Z,1.93
2022-09-22T22:09:26.019Z,2.27
2022-09-22T22:11:56.281Z,3.03
2022-09-22T22:14:26.310Z,4.37
2022-09-22T22:16:55.670Z,3.23
2022-09-22T22:19:26.886Z,2.67
2022-09-22T22:21:56.303Z,2.93
2022-09-22T22:24:39.939Z,3.20
2022-09-22T22:27:10.876Z,2.97
2022-09-22T22:29:39.517Z,2.93
2022-09-22T22:32:09.470Z,2.00
2022-09-22T22:34:38.553Z,2.27
2022-09-22T22:37:10.027Z,2.10
2022-09-22T22:39:38.562Z,3.00
2022-09-22T22:42:07.303Z,3.20
2022-09-22T22:44:35.152Z,2.63
2022-09-22T22:47:03.024Z,2.00
2022-09-22T22:49:31.336Z,3.43
2022-09-22T22:51:59.047Z,2.67
2022-09-22T22:54:28.427Z,2.77
2022-09-22T22:56:56.170Z,3.13
2022-09-22T22:59:23.849Z,3.30
2022-09-22T23:01:51.589Z,4.30
2022-09-22T23:04:19.579Z,2.50
2022-09-22T23:06:48.441Z,3.90
2022-09-22T23:09:17.831Z,2.50
2022-09-22T23:11:47.536Z,2.43
2022-09-22T23:14:16.553Z,2.20
2022-09-22T23:16:46.050Z,2.50
2022-09-22T23:19:16.387Z,2.07
2022-09-22T23:21:44.979Z,2.77
2022-09-22T23:24:16.333Z,2.60
2022-09-22T23:26:44.662Z,2.30
2022-09-22T23:29:14.577Z,2.33
2022-09-22T23:31:42.353Z,2.03
2022-09-22T23:34:10.907Z,2.23
2022-09-22T23:36:39.492Z,1.97
2022-09-22T23:39:07.691Z,1.13
2022-09-22T23:41:37.317Z,1.00
2022-09-22T23:44:06.687Z,0.60
2022-09-22T23:46:38.259Z,1.40
2022-09-22T23:49:06.612Z,0.70
2022-09-22T23:51:34.748Z,2.33
2022-09-22T23:54:02.482Z,0.50
2022-09-22T23:56:30.568Z,0.80
2022-09-22T23:58:58.300Z,0.90
